Nearby METAR Reports

 

EDNY - Friedrichshafen, Germany
Distance from station: ONO 32km
aktuell: 29.09.2016 04:50

 Wind von ONO
Wind: ONO 4 km/h
Visibility: 1 km
2016/09/29 02:50 EDNY 290250Z AUTO 06002KT 1000 0250/ R24/0450V1100D FG 08/08 Q1028
LSZR - Rheineck/Altenrh, Switzerland
Distance from station: OSO 37km
aktuell: 29.09.2016 04:50
klar
klar
 Wind von OSO
Wind: OSO 4 km/h
Temperatur: 10°C
Taupunkt: 10°C
Luftfeuchte: 100%
Luftdruck: 1027 hPa
Zusammenfassung: klar
Visibility: greater than 10 km
2016/09/29 02:50 LSZR 290250Z AUTO 11002KT CAVOK 10/10 Q1027
LSMD - Dubendorf, Switzerland
Distance from station: SW 40km
aktuell: 29.09.2016 04:50
klar
klar
 Wind von SO
Wind: SO 4 km/h
Temperatur: 10°C
Taupunkt: 10°C
Luftfeuchte: 100%
Luftdruck: 1028 hPa
Clouds: klar
Visibility: 1.3 miles
2016/09/29 02:50 LSMD 290250Z AUTO 13002KT 0800NDV R11/0650VP2000U R29/P2000N NCD 10/10 Q1028 RMK
 
LSZH - Zurich-Kloten (a, Switzerland
Distance from station: WSW 44km
aktuell: 29.09.2016 04:50
Patches of fog, Few clouds
Patches of fog, Few clouds
 Wind von SO
Wind: SO 4 km/h
Temperatur: 9°C
Taupunkt: 9°C
Luftfeuchte: 100%
Luftdruck: 1028 hPa
Zusammenfassung: Patches of Fog
Clouds: Few Clouds
Visibility: 6 km
Cloud details: Few Clouds 61 m
2016/09/29 02:50 LSZH 290250Z 13002KT 6000 R14/P2000N R16/1000U R28/P2000N R34/P2000N BCFG FEW002 09/09 Q1028 TEMPO 4000
LOIH - Hohenems-Dornbir, Austria
Distance from station: OSO 51km
aktuell: 28.09.2016 17:00
NOT Current
stark bewölkt
stark bewölkt
 Wind von N
Wind: N 4 km/h
Temperatur: 22°C
Taupunkt: 16°C
Luftfeuchte: 69%
Luftdruck: 1029 hPa
Clouds: stark bewölkt
Cloud details: stark bewölkt 9144 m
2016/09/28 15:00 LOIH 281500Z 36002KT 35KM BKN300CI 22/16 Q1029 RMK BKN
LSME - Emmen, Switzerland
Distance from station: SW 82km
aktuell: 29.09.2016 04:50
klar
klar
 Wind von varies
Wind: varies 4 km/h
Temperatur: 10°C
Taupunkt: 9°C
Luftfeuchte: 94%
Luftdruck: 1028 hPa
Clouds: klar
Visibility: 15 miles
2016/09/29 02:50 LSME 290250Z AUTO VRB02KT 9000NDV NCD 10/09 Q1028 RMK
 
LSZC - Buochs, Switzerland
Distance from station: SW 89km
aktuell: 29.09.2016 04:50
klar
klar
 Wind von WSW
Wind: WSW 6 km/h
Temperatur: 11°C
Taupunkt: 11°C
Luftfeuchte: 100%
Luftdruck: 1028 hPa
Clouds: klar
Visibility: 10 km
2016/09/29 02:50 LSZC 290250Z AUTO 25003KT 170V330 9999 NCD 11/11 Q1028
ETHL - Laupheim (ger-Ar, Germany
Distance from station: NO 92km
aktuell: 29.09.2016 04:20
teilweise bewölkt
teilweise bewölkt
 Wind von SW
Wind: SW 9 km/h
Temperatur: 12°C
Taupunkt: 11°C
Luftfeuchte: 94%
Luftdruck: 1027 hPa
Clouds: teilweise bewölkt
Visibility: 7 km
Cloud details: teilweise bewölkt 7925 m
2016/09/29 02:20 ETHL 290220Z 23005KT 7000 SCT260 12/11 Q1027 WHT
EDJA - Memmingen Allgau, Germany
Distance from station: ONO 95km
aktuell: 28.09.2016 22:50
NOT Current
klar
klar
 Wind von SSW
Wind: SSW 11 km/h
Temperatur: 12°C
Taupunkt: 10°C
Luftfeuchte: 88%
Luftdruck: 1030 hPa
Zusammenfassung: klar
Visibility: greater than 10 km
2016/09/28 20:50 EDJA 282050Z 20006KT CAVOK 12/10 Q1030
 
LSMA - Alpnach, Switzerland
Distance from station: SW 95km
aktuell: 29.09.2016 04:50
klar
klar
 Wind von S
Wind: S 7 km/h
Temperatur: 10°C
gefühlte Temperatur: 9°C
Taupunkt: 10°C
Luftfeuchte: 100%
Luftdruck: 1028 hPa
Clouds: klar
Visibility: 16 miles
2016/09/29 02:50 LSMA 290250Z AUTO 19004KT 9999NDV NCD 10/10 Q1028 RMK